Historyczne dane pomiarowe

Dodano dane terminowe – wersja testowa.

Dane z okresu 1951-2019

Wersja bazy: 1.34 [2019-03-16, lista zmian], aktualizacja planowana na 2019-04-15

Dane meteo z obszaru Polski uzyskane na podstawie danych udostępnionych przez Instytut Meteorologii i Gospodarki Wodnej – Państwowy Instytut Badawczy.

 

Wybierz Datę:    

       

TemperaturaWilgotnośćWiatrCiśnienieOpadyŚniegCzas trwania zjawisk
 Stacja t tx tn tng RH VA  wxwx mslp ppp RRR   cm mm wxwxwxwxwxwxwx
1961-02-15 4.9 10.9 0.5 -2.9 90.5- 2.7 1.3---- 0.0------------
1961-02-14 3.9 6.2 -0.8 -3.8 95.8- 7.3 2.3---- 0.0------------
1961-02-13 4.4 7.0 2.2 1.0 90.8- 7.0 2.3---- 0.0------------
1961-02-12 4.2 5.8 2.9 1.2 95.5- 8.0 1.3---- 3.8------------
1961-02-11 5.0 7.8 0.5 -1.1 89.3- 8.0 3.7---- 0.2------------
1961-02-10 2.3 6.3 1.7 2.1 93.3- 8.0 4.3---- 1.4------------
1961-02-09 3.8 6.3 -1.0 -4.5 95.5- 8.0 4.0---- 18.4------------
1961-02-08 2.5 5.6 0.5 -0.5 90.3- 3.7 3.0---- 0.0------------
1961-02-07 2.7 5.2 0.8 -0.3 83.5- 4.3 4.3---- 1.2------------
1961-02-06 0.8 2.1 -3.7 -7.4 73.8- 6.0 6.0---- 2.1------------
1961-02-05 -0.7 1.5 -2.2 -2.4 88.0- 4.3 2.7---- 0.1------------
1961-02-04 0.4 2.1 -0.6 -2.8 84.0- 4.3 2.7---- 0.0-- 1---------
1961-02-03 0.6 0.9 -1.0 -4.2 94.0- 8.0 2.3---- 0.8------------
1961-02-02 1.8 4.9 0.1 -1.5 79.0- 3.7 4.0---- 0.0------------
1961-02-01 1.9 3.7 0.3 -2.0 93.8- 8.0 2.0---- 5.8------------
1961-01-31 2.9 4.3 1.6 -0.4 96.8- 8.0 2.7---- 12.1------------
1961-01-30 3.4 4.2 0.4 -2.6 81.3- 7.3 7.0---- 2.2-- 4---------
1961-01-29 1.0 3.2-10.1-19.7 78.8- 1.7 5.7---- 0.0-- 6---------
1961-01-28 -5.2 -1.0-15.0-24.5 79.0- 1.3 4.3---- 0.0-- 7---------
1961-01-27-12.0 -5.5-21.0-27.4 73.5- 0.7 1.7---- 0.0-- 7---------
1961-01-26-16.3-11.2-20.7-26.4 81.3- 0.0 2.3---- 0.0-- 8---------
1961-01-25-11.5 -7.2-18.3-22.5 77.0- 2.7 5.0---- 0.0-- 8---------
1961-01-24-12.4 -5.5-18.0-24.6 77.5- 4.0 0.3---- 0.1-- 8---------
1961-01-23 -8.6 -2.4-10.4-12.5 82.3- 6.0 3.3---- 0.0-- 8---------
1961-01-22 -5.9 -2.7-14.7-20.7 85.3- 3.0 0.3---- 3.6-- 5---------
1961-01-21 -9.4 -4.3-12.5-18.7 80.8- 0.3 2.3---- 0.0-- 5---------
1961-01-20 -7.5 -2.4-11.9-16.5 80.0- 0.0 3.0---- 0.0-- 6---------
1961-01-19-10.7 -5.3-17.8-22.1 74.3- 2.7 2.3---- 0.0-- 6---------
1961-01-18-13.9 -8.1-19.1-23.9 81.8- 0.0 1.3---- 0.0-- 6---------
1961-01-17-10.9 -0.6-15.7-11.9 84.0- 0.0 1.7---- 0.0-- 6---------
1961-01-16 -1.5 -0.4 -4.3 -9.2 91.8- 8.0 1.3---- 0.0-- 7---------
1961-01-15 -1.8 0.7 -3.1 -4.7 93.8- 8.0 0.7---- 0.0-- 9---------
1961-01-14 0.7 0.9 0.2 -0.8 96.0- 8.0 0.3---- 7.8------------
1961-01-13 -0.9 0.8 -5.2-12.7 76.5- 6.3 2.7---- 0.0-- 2---------
1961-01-12 -1.1 0.6 -1.8 -3.7 85.0- 5.0 3.7---- 0.0-- 2---------
1961-01-11 0.6 2.3 -1.4 -5.6 92.0- 6.3 2.3---- 2.8------------
1961-01-10 2.0 5.3 0.4 -0.4 84.0- 3.0 2.0---- 0.0------------
1961-01-09 3.8 5.6 2.0 -0.1 79.0- 7.0 3.0---- 1.2------------
1961-01-08 2.6 3.7 0.7 -0.4 85.3- 8.0 3.0---- 0.2------------
1961-01-07 2.5 4.3 -0.4 -3.4 81.8- 7.0 1.7---- 0.7------------
1961-01-06 1.5 4.6 -0.2 -2.0 80.5- 5.7 3.0---- 0.0------------
1961-01-05 1.9 3.2 -0.3 -3.5 84.0- 7.7 2.7---- 0.0------------
1961-01-04 2.8 7.3 0.8 -0.8 88.5- 6.7 2.7---- 0.1------------
1961-01-03 2.0 3.7 -1.7 -4.1 89.0- 6.3 3.0---- 3.9------------
1961-01-02 -0.1 1.8 -1.0 -3.8 88.8- 6.7 2.3---- 0.0------------
1961-01-01 0.2 1.8 -1.2 -1.6 90.3- 6.7 0.7---- 0.0------------
260.3 ms

 

Źródłem pochodzenia danych jest Instytut Meteorologii i Gospodarki Wodnej – Państwowy Instytut Badawczy. Dane Instytutu Meteorologii i Gospodarki Wodnej – Państwowego Instytutu Badawczego zostały przetworzone.

Dane źródłowe można odnaleźć na stronie https://dane.imgw.pl